Time;durP1;ratioP1;P1;durP2;ratioP2;P2;SDS_P1;SDS_P2;PMS_P1;PMS_P2;Temp;Humidity;BMP_temperature;BMP_pressure;BME280_temperature;BME280_humidity;BME280_pressure;Samples;Min_cycle;Max_cycle;Signal;HPM_P1;HPM_P2
2022/07/12 00:00:12;;;;;;;3.30;1.60;;;;;;;12.76;59.85;101301.78;1590795;88;21169;-89
2022/07/12 00:02:38;;;;;;;2.92;1.62;;;;;;;12.72;59.90;101303.56;1626455;86;21147;-89
2022/07/12 00:05:05;;;;;;;2.40;1.57;;;;;;;12.70;59.94;101298.83;1610296;87;21103;-89
2022/07/12 00:07:31;;;;;;;;;;;;;;;12.68;60.03;101303.63;1601421;87;21143;-89
2022/07/12 00:09:57;;;;;;;1.35;0.90;;;;;;;12.64;60.66;101307.99;1618655;86;20194;-90
2022/07/12 00:12:23;;;;;;;3.85;1.12;;;;;;;12.63;60.23;101308.02;1582028;87;21133;-90
2022/07/12 00:14:51;;;;;;;1.60;1.20;;;;;;;12.58;60.29;101305.48;1632950;85;21101;-89
2022/07/12 00:17:20;;;;;;;2.08;1.17;;;;;;;12.58;60.37;101302.89;1622610;86;21091;-89
2022/07/12 00:19:46;;;;;;;1.25;1.12;;;;;;;12.57;60.43;101302.03;1632592;86;21220;-89
2022/07/12 00:22:12;;;;;;;3.42;1.02;;;;;;;12.60;60.54;101305.88;1633094;86;21155;-90
2022/07/12 00:24:47;;;;;;;1.07;0.98;;;;;;;12.63;60.60;101304.98;1618129;87;21139;-90
2022/07/12 00:27:18;;;;;;;1.45;0.98;;;;;;;12.64;60.66;101305.84;1573072;89;21625;-90
2022/07/12 00:29:46;;;;;;;4.12;1.30;;;;;;;12.63;60.78;101302.83;1575255;89;21132;-90
2022/07/12 00:32:12;;;;;;;2.47;1.40;;;;;;;12.63;60.84;101302.83;1555109;89;21108;-89
2022/07/12 00:34:38;;;;;;;1.87;1.17;;;;;;;12.62;60.94;101303.27;1544684;89;20897;-89
2022/07/12 00:37:07;;;;;;;3.25;1.35;;;;;;;12.65;61.04;101299.77;1580548;89;21197;-89
2022/07/12 00:39:33;;;;;;;8.48;1.27;;;;;;;12.67;61.12;101300.17;1546276;89;21196;-89
2022/07/12 00:42:00;;;;;;;4.42;1.20;;;;;;;12.68;61.20;101307.08;1584786;89;21787;-90
2022/07/12 00:44:39;;;;;;;1.15;1.00;;;;;;;12.69;61.24;101297.55;1583037;89;21124;-90
2022/07/12 00:47:06;;;;;;;1.42;1.10;;;;;;;12.69;61.33;101303.60;1550651;88;355276;-89
2022/07/12 00:49:32;;;;;;;;;;;;;;;12.70;61.45;101300.12;1572483;88;21632;-90
2022/07/12 00:52:02;;;;;;;2.80;1.47;;;;;;;12.72;62.04;101303.56;1606789;87;20311;-89
2022/07/12 00:54:28;;;;;;;2.55;1.00;;;;;;;12.74;61.54;101304.84;1588413;89;21196;-89
2022/07/12 00:56:55;;;;;;;1.27;1.17;;;;;;;12.74;61.61;101303.09;1594183;88;21176;-89
2022/07/12 00:59:21;;;;;;;1.00;0.90;;;;;;;12.75;61.71;101303.52;1564396;88;21502;-89
2022/07/12 01:01:47;;;;;;;1.95;1.10;;;;;;;12.76;61.82;101306.53;1616648;87;21093;-89
2022/07/12 01:04:19;;;;;;;2.25;0.93;;;;;;;12.80;61.94;101302.16;1581343;88;21104;-90
2022/07/12 01:06:50;;;;;;;1.02;0.93;;;;;;;12.84;62.02;101302.53;1563103;89;21917;-90
2022/07/12 01:09:16;;;;;;;1.80;1.07;;;;;;;12.90;62.07;101299.85;1590831;88;21568;-89
2022/07/12 01:11:44;;;;;;;1.60;1.03;;;;;;;12.96;62.20;101296.31;1588015;87;21014;-90
2022/07/12 01:14:13;;;;;;;1.42;0.90;;;;;;;13.01;62.24;101291.88;1593977;86;21107;-89
2022/07/12 01:16:45;;;;;;;1.35;1.00;;;;;;;13.05;62.32;101290.50;1616595;87;21106;-90
2022/07/12 01:19:19;;;;;;;2.40;0.93;;;;;;;13.09;62.40;101286.98;1624147;87;21060;-90
2022/07/12 01:21:47;;;;;;;3.02;1.20;;;;;;;13.15;62.45;101284.73;1594414;88;21148;-89
2022/07/12 01:24:14;;;;;;;1.72;1.10;;;;;;;13.19;62.55;101280.80;1566604;89;21137;-89
2022/07/12 01:26:40;;;;;;;2.25;0.80;;;;;;;13.25;62.62;101279.84;1597708;88;21097;-90
2022/07/12 01:29:08;;;;;;;2.37;1.25;;;;;;;13.29;62.67;101274.16;1564192;89;21112;-90
2022/07/12 01:31:37;;;;;;;1.92;1.10;;;;;;;13.35;62.74;101272.75;1571469;89;21161;-90
2022/07/12 01:34:13;;;;;;;2.33;0.90;;;;;;;13.41;62.82;101276.55;1575246;89;21092;-90
2022/07/12 01:36:42;;;;;;;1.10;0.95;;;;;;;13.44;62.88;101272.60;1613396;86;21061;-90
2022/07/12 01:39:08;;;;;;;1.77;0.90;;;;;;;13.46;62.96;101278.63;1565206;91;21615;-90
2022/07/12 01:41:45;;;;;;;2.40;1.20;;;;;;;13.50;63.04;101279.84;1605309;87;21345;-90
2022/07/12 01:44:18;;;;;;;3.55;1.15;;;;;;;13.55;63.10;101278.44;1583892;88;21129;-90
2022/07/12 01:46:45;;;;;;;3.47;0.90;;;;;;;13.59;63.16;101282.26;1601347;88;21180;-89
2022/07/12 01:49:12;;;;;;;3.50;1.00;;;;;;;13.64;63.24;101275.67;1564543;89;21661;-90
2022/07/12 01:51:40;;;;;;;3.02;0.85;;;;;;;13.69;63.26;101276.89;1558306;90;21410;-90
2022/07/12 01:54:07;;;;;;;2.25;0.85;;;;;;;13.73;63.37;101277.25;1576209;89;21183;-90
2022/07/12 01:56:36;;;;;;;3.22;0.98;;;;;;;13.76;63.35;101279.80;1565137;90;21276;-90
2022/07/12 01:59:07;;;;;;;2.25;1.20;;;;;;;13.78;63.43;101276.28;1581465;88;21140;-90
2022/07/12 02:01:37;;;;;;;3.55;0.98;;;;;;;13.83;63.52;101280.95;1535259;91;21158;-90
2022/07/12 02:04:05;;;;;;;2.27;0.90;;;;;;;13.86;63.59;101282.20;1556428;89;21110;-90
2022/07/12 02:06:41;;;;;;;2.05;1.00;;;;;;;13.89;63.63;101284.74;1547122;89;21172;-90
2022/07/12 02:09:13;;;;;;;3.20;1.30;;;;;;;13.92;63.65;101278.63;1566752;90;21181;-90
2022/07/12 02:11:40;;;;;;;2.80;1.17;;;;;;;13.94;63.69;101280.76;1608627;86;21666;-90
2022/07/12 02:14:08;;;;;;;3.98;1.05;;;;;;;13.96;63.76;101285.92;1596821;88;21128;-90
2022/07/12 02:16:34;;;;;;;1.72;0.90;;;;;;;13.98;63.89;101288.05;1595298;88;21085;-90
2022/07/12 02:19:00;;;;;;;1.73;1.17;;;;;;;13.98;63.91;101287.61;1617389;86;21032;-90
2022/07/12 02:21:41;;;;;;;1.22;0.80;;;;;;;14.00;63.92;101287.14;1594226;88;21491;-90
2022/07/12 02:24:08;;;;;;;4.20;1.10;;;;;;;14.02;63.95;101290.57;1567017;90;21095;-90
2022/07/12 02:26:37;;;;;;;2.00;1.12;;;;;;;14.03;63.99;101292.28;1576080;86;21092;-89
2022/07/12 02:29:06;;;;;;;2.22;0.82;;;;;;;14.06;64.04;101289.59;1597641;88;21096;-90
2022/07/12 02:31:33;;;;;;;2.02;1.10;;;;;;;14.07;64.06;101286.10;1582290;88;21177;-90
2022/07/12 02:33:59;;;;;;;4.80;1.32;;;;;;;14.09;64.14;101288.23;1590359;89;21025;-89
2022/07/12 02:36:27;;;;;;;1.77;0.95;;;;;;;14.10;64.21;101284.74;1618772;87;21136;-89
2022/07/12 02:38:53;;;;;;;3.47;1.10;;;;;;;14.14;64.27;101288.14;1622294;86;26827;-90
2022/07/12 02:41:19;;;;;;;2.27;1.03;;;;;;;14.14;64.33;101283.80;1555266;89;21097;-90
2022/07/12 02:43:47;;;;;;;1.47;0.80;;;;;;;14.15;64.37;101280.75;1618190;87;21216;-90
2022/07/12 02:46:13;;;;;;;1.05;0.80;;;;;;;14.16;64.43;101283.77;1608695;88;21150;-90
2022/07/12 02:48:40;;;;;;;2.15;1.00;;;;;;;14.18;64.50;101284.15;1626085;86;21135;-90
2022/07/12 02:51:07;;;;;;;2.83;1.25;;;;;;;14.20;64.54;101284.97;1556446;90;21117;-89
2022/07/12 02:53:37;;;;;;;2.20;1.20;;;;;;;14.22;64.53;101287.55;1573155;89;26672;-90
2022/07/12 02:56:04;;;;;;;4.15;1.50;;;;;;;14.23;64.63;101283.61;1534526;90;21150;-89
2022/07/12 02:58:34;;;;;;;2.47;1.30;;;;;;;14.27;64.69;101288.75;1553909;90;21101;-90
2022/07/12 03:01:04;;;;;;;2.80;1.22;;;;;;;14.31;64.76;101300.81;1564850;90;21159;-90
2022/07/12 03:03:34;;;;;;;1.15;0.98;;;;;;;14.33;64.77;101302.94;1516150;93;21801;-90
2022/07/12 03:06:02;;;;;;;2.30;1.35;;;;;;;14.34;64.87;101299.45;1517526;94;21139;-89
2022/07/12 03:08:32;;;;;;;3.25;1.15;;;;;;;14.35;64.93;101295.52;1560484;89;21149;-90
2022/07/12 03:10:58;;;;;;;3.30;1.40;;;;;;;14.39;65.00;101304.97;1577409;89;21158;-90
2022/07/12 03:13:26;;;;;;;4.47;1.50;;;;;;;14.41;65.06;101305.83;1548723;89;21113;-90
2022/07/12 03:15:53;;;;;;;5.12;1.40;;;;;;;14.33;65.07;101286.03;1602885;87;21824;-90
2022/07/12 03:18:28;;;;;;;1.70;1.35;;;;;;;14.46;65.17;101307.03;1603920;87;21152;-90
2022/07/12 03:20:59;;;;;;;2.35;1.40;;;;;;;14.49;65.21;101306.53;1633149;86;21127;-90
2022/07/12 03:23:26;;;;;;;2.80;1.17;;;;;;;14.54;65.28;101305.98;1618647;87;21168;-90
2022/07/12 03:25:55;;;;;;;1.42;0.90;;;;;;;14.57;65.28;101315.00;1631552;86;21087;-90
2022/07/12 03:28:25;;;;;;;4.92;1.67;;;;;;;14.62;65.30;101318.80;1605078;87;21481;-90
2022/07/12 03:30:54;;;;;;;2.30;1.22;;;;;;;14.65;65.38;101314.84;1610777;85;21834;-89
2022/07/12 03:33:20;;;;;;;4.95;1.42;;;;;;;14.67;65.48;101316.97;1607466;86;21270;-88
2022/07/12 03:35:49;;;;;;;5.20;1.17;;;;;;;14.70;65.51;101319.50;1609494;87;21159;-89
2022/07/12 03:38:15;;;;;;;2.20;1.40;;;;;;;14.75;65.55;101315.50;1592801;87;21132;-89
2022/07/12 03:40:41;;;;;;;2.42;1.25;;;;;;;14.78;65.64;101318.03;1602957;87;21128;-89
2022/07/12 03:43:07;;;;;;;2.27;1.45;;;;;;;14.80;65.75;101311.90;1626533;87;21066;-89
2022/07/12 03:45:34;;;;;;;2.37;1.50;;;;;;;14.83;65.88;101315.73;1620675;86;21103;-89
2022/07/12 03:48:00;;;;;;;1.90;1.40;;;;;;;14.85;65.89;101321.77;1613311;87;21049;-89
2022/07/12 03:50:27;;;;;;;4.92;1.35;;;;;;;14.90;65.82;101316.46;1600966;88;21586;-88
2022/07/12 03:52:54;;;;;;;4.00;1.43;;;;;;;14.92;65.82;101314.67;1621558;87;20966;-88
2022/07/12 03:55:20;;;;;;;2.57;1.40;;;;;;;14.95;65.98;101317.22;1571473;87;20971;-90
2022/07/12 03:57:48;;;;;;;2.05;1.37;;;;;;;14.98;65.94;101314.98;1568583;90;21188;-90
2022/07/12 04:00:16;;;;;;;3.92;1.50;;;;;;;15.01;66.04;101312.31;1598124;86;21010;-90
2022/07/12 04:02:48;;;;;;;2.72;1.60;;;;;;;15.01;66.08;101309.70;1582681;89;21077;-90
2022/07/12 04:05:16;;;;;;;5.92;1.95;;;;;;;15.03;66.13;101309.22;1561719;91;21180;-89
2022/07/12 04:07:44;;;;;;;2.47;1.52;;;;;;;15.07;66.14;101309.12;1570458;90;21607;-89
2022/07/12 04:10:10;;;;;;;4.33;1.50;;;;;;;15.11;66.19;101308.13;1583837;88;21097;-90
2022/07/12 04:12:36;;;;;;;4.25;1.72;;;;;;;15.15;66.20;101307.61;1605601;88;21668;-90
2022/07/12 04:15:06;;;;;;;5.15;1.77;;;;;;;15.19;66.31;101302.28;1606967;88;21101;-90
2022/07/12 04:17:33;;;;;;;6.55;1.85;;;;;;;15.25;66.35;101299.98;1625428;86;21069;-90
2022/07/12 04:20:00;;;;;;;5.47;1.98;;;;;;;15.29;66.45;101299.02;1559212;89;21594;-89
2022/07/12 04:22:26;;;;;;;4.33;1.80;;;;;;;15.33;66.47;101295.44;1596049;89;21097;-89
2022/07/12 04:24:52;;;;;;;4.20;1.65;;;;;;;15.36;66.49;101295.36;1596011;89;21153;-89
2022/07/12 04:27:20;;;;;;;3.95;2.08;;;;;;;15.41;66.50;101293.50;1588112;88;21117;-89
2022/07/12 04:29:46;;;;;;;3.20;2.12;;;;;;;15.46;66.55;101299.45;1604864;88;21141;-89
2022/07/12 04:32:12;;;;;;;2.40;1.80;;;;;;;15.49;66.61;101303.73;1624222;87;20921;-89
2022/07/12 04:34:39;;;;;;;7.75;1.98;;;;;;;15.55;66.64;101302.28;1602257;88;21458;-89
2022/07/12 04:37:05;;;;;;;2.83;1.50;;;;;;;15.64;66.69;101297.27;1618784;86;21252;-89
2022/07/12 04:39:31;;;;;;;5.73;2.00;;;;;;;15.75;66.74;101300.46;1597130;89;21161;-90
2022/07/12 04:42:05;;;;;;;4.03;2.22;;;;;;;15.84;66.78;101295.86;1619865;86;21155;-90
2022/07/12 04:44:31;;;;;;;3.83;1.75;;;;;;;15.96;66.84;101298.59;1556492;89;21105;-90
2022/07/12 04:46:58;;;;;;;4.85;2.15;;;;;;;16.07;66.87;101293.08;1569962;89;25804;-90
2022/07/12 04:49:26;;;;;;;3.22;1.55;;;;;;;16.16;66.87;101287.13;1599359;86;21319;-90
2022/07/12 04:51:54;;;;;;;2.98;1.60;;;;;;;16.27;66.83;101283.35;1577301;89;21137;-90
2022/07/12 04:54:25;;;;;;;4.08;2.00;;;;;;;16.39;66.88;101281.25;1579982;88;21415;-90
2022/07/12 04:56:53;;;;;;;5.85;1.72;;;;;;;16.52;66.88;101283.05;1567405;89;21267;-90
2022/07/12 04:59:19;;;;;;;7.03;1.80;;;;;;;16.64;66.90;101280.06;1600298;86;21179;-90
2022/07/12 05:01:45;;;;;;;5.65;1.57;;;;;;;16.73;66.87;101285.02;1573224;89;21126;-90
2022/07/12 05:04:13;;;;;;;3.90;1.43;;;;;;;16.80;66.87;101281.77;1578516;88;21150;-90
2022/07/12 05:06:40;;;;;;;4.12;1.72;;;;;;;16.85;66.88;101290.31;1568398;90;21138;-90
2022/07/12 05:09:07;;;;;;;5.45;1.72;;;;;;;16.93;66.88;101296.60;1584713;90;21117;-90
2022/07/12 05:11:34;;;;;;;4.42;1.92;;;;;;;17.13;67.02;101292.91;1600667;86;21188;-90
2022/07/12 05:14:00;;;;;;;;;;;;;;;17.48;67.08;101301.73;1609294;87;21095;-90
2022/07/12 05:16:27;;;;;;;4.87;2.00;;;;;;;18.30;66.79;101273.52;1564213;88;21010;-90
2022/07/12 05:18:53;;;;;;;2.98;2.00;;;;;;;18.30;66.79;101273.52;1567707;89;21583;-89
2022/07/12 05:21:19;;;;;;;3.70;2.20;;;;;;;18.86;66.80;101288.38;1588322;88;21106;-90
2022/07/12 05:23:45;;;;;;;4.20;2.00;;;;;;;19.33;66.65;101292.13;1603300;86;21121;-90
2022/07/12 05:26:12;;;;;;;4.28;1.72;;;;;;;19.76;66.49;101294.65;1606237;88;21193;-90
2022/07/12 05:28:41;;;;;;;4.35;2.35;;;;;;;20.18;66.41;101295.00;1591208;88;21058;-90
2022/07/12 05:31:10;;;;;;;3.98;1.92;;;;;;;20.52;66.30;101293.00;1573324;88;21107;-90
2022/07/12 05:33:36;;;;;;;4.37;2.05;;;;;;;20.88;66.10;101295.65;1611598;86;21567;-90
2022/07/12 05:36:03;;;;;;;4.97;2.35;;;;;;;21.19;65.98;101287.59;1572108;89;21188;-90
2022/07/12 05:38:30;;;;;;;4.70;2.00;;;;;;;21.59;65.82;101291.71;1604734;87;21076;-89
2022/07/12 05:40:56;;;;;;;4.05;2.30;;;;;;;21.86;65.69;101292.05;1597852;88;21109;-89
2022/07/12 05:43:22;;;;;;;4.12;2.15;;;;;;;22.46;65.34;101291.88;1584490;88;21688;-89
2022/07/12 05:45:48;;;;;;;3.93;2.20;;;;;;;22.46;65.34;101291.88;1614489;86;20950;-89
2022/07/12 05:48:15;;;;;;;2.92;2.12;;;;;;;22.85;65.32;101290.64;1609219;88;21136;-89
2022/07/12 05:50:55;;;;;;;4.97;2.50;;;;;;;23.17;65.17;101297.55;1576328;89;21220;-90
2022/07/12 05:53:22;;;;;;;6.72;2.02;;;;;;;23.46;64.96;101289.23;1584130;88;21156;-90
2022/07/12 05:55:50;;;;;;;3.17;1.95;;;;;;;23.76;64.78;101291.40;1602246;87;21552;-90
2022/07/12 05:58:16;;;;;;;3.17;2.30;;;;;;;23.98;64.43;101292.23;1624158;86;21096;-89
2022/07/12 06:00:43;;;;;;;2.62;2.08;;;;;;;24.16;64.27;101292.91;1617923;86;21081;-90
2022/07/12 06:03:09;;;;;;;2.25;1.57;;;;;;;24.44;64.08;101289.39;1618402;86;21096;-90
2022/07/12 06:05:35;;;;;;;4.90;2.22;;;;;;;24.81;63.87;101291.02;1595728;88;21091;-90
2022/07/12 06:08:02;;;;;;;3.00;1.90;;;;;;;25.13;63.77;101292.89;1557246;89;21120;-90
2022/07/12 06:10:28;;;;;;;3.05;2.10;;;;;;;25.40;62.91;101286.61;1611514;86;21112;-90
2022/07/12 06:12:54;;;;;;;5.47;2.10;;;;;;;25.32;62.48;101284.09;1619408;86;21132;-90
2022/07/12 06:15:20;;;;;;;3.42;1.65;;;;;;;25.32;62.74;101286.27;1562145;89;21141;-90
2022/07/12 06:17:47;;;;;;;3.70;1.80;;;;;;;25.43;62.22;101288.20;1538465;88;21130;-89
2022/07/12 06:20:14;;;;;;;1.98;1.20;;;;;;;25.52;62.21;101281.41;1604638;86;21494;-89
2022/07/12 06:22:41;;;;;;;4.35;1.85;;;;;;;25.60;61.90;101281.25;1592708;88;21105;-88
2022/07/12 06:25:08;;;;;;;2.57;1.50;;;;;;;25.83;61.74;101281.52;1590463;88;21851;-90
2022/07/12 06:27:35;;;;;;;2.58;1.75;;;;;;;25.94;61.23;101284.27;1584131;88;21135;-90
2022/07/12 06:30:01;;;;;;;2.40;1.50;;;;;;;25.95;60.74;101281.52;1609994;87;21165;-90
2022/07/12 06:32:34;;;;;;;2.77;1.42;;;;;;;26.16;60.70;101275.15;1595068;87;21172;-90
2022/07/12 06:35:00;;;;;;;2.45;1.55;;;;;;;26.58;60.33;101278.34;1613133;86;21084;-90
2022/07/12 06:37:26;;;;;;;3.07;1.90;;;;;;;26.99;59.81;101284.16;1558943;89;20939;-90
2022/07/12 06:39:53;;;;;;;4.28;2.42;;;;;;;27.43;59.47;101291.91;1620842;86;21134;-91
2022/07/12 06:42:19;;;;;;;2.67;1.90;;;;;;;27.69;59.39;101283.27;1617252;86;21022;-91
2022/07/12 06:44:45;;;;;;;5.05;2.20;;;;;;;27.93;58.91;101283.18;1620795;86;21118;-91
2022/07/12 06:47:11;;;;;;;3.00;1.87;;;;;;;28.03;58.72;101283.30;1614916;86;21148;-91
2022/07/12 06:49:38;;;;;;;2.87;2.00;;;;;;;28.27;58.16;101281.37;1596255;88;21105;-91
2022/07/12 06:52:10;;;;;;;4.60;2.17;;;;;;;28.43;57.87;101271.67;1576463;88;21609;-91
2022/07/12 06:54:37;;;;;;;2.15;1.77;;;;;;;28.61;57.14;101282.14;1593220;87;21225;-90
2022/07/12 06:57:03;;;;;;;3.20;1.62;;;;;;;28.71;56.95;101276.91;1593982;86;21096;-90
2022/07/12 06:59:29;;;;;;;;;;;;;;;28.78;56.77;101276.77;1625130;86;21169;-91
2022/07/12 07:01:58;;;;;;;1.80;1.42;;;;;;;28.85;55.35;101271.34;1589801;87;20246;-91
2022/07/12 07:04:27;;;;;;;3.17;1.92;;;;;;;28.87;56.24;101274.72;1589876;88;21105;-91
2022/07/12 07:06:54;;;;;;;2.50;1.65;;;;;;;29.14;55.80;101268.89;1587101;87;21480;-91
2022/07/12 07:09:22;;;;;;;1.92;1.25;;;;;;;29.31;55.06;101274.98;1545181;88;21169;-91
2022/07/12 07:11:50;;;;;;;3.80;1.22;;;;;;;29.27;54.72;101270.40;1616286;86;21113;-90
2022/07/12 07:14:17;;;;;;;3.87;1.30;;;;;;;29.28;54.15;101274.75;1583127;89;22392;-91
2022/07/12 07:16:46;;;;;;;4.12;1.35;;;;;;;29.31;53.98;101272.32;1611356;86;20977;-91
2022/07/12 07:19:12;;;;;;;1.95;1.20;;;;;;;29.30;53.62;101274.14;1594553;86;21737;-91
2022/07/12 07:21:39;;;;;;;4.87;1.67;;;;;;;29.33;53.28;101273.87;1596081;87;21146;-91
2022/07/12 07:24:05;;;;;;;1.98;1.22;;;;;;;29.44;52.73;101270.34;1614907;86;21349;-91
2022/07/12 07:26:32;;;;;;;2.33;1.00;;;;;;;29.52;52.50;101262.54;1585879;88;21219;-91
2022/07/12 07:31:43;;;;;;;4.47;1.15;;;;;;;29.59;51.68;101275.70;1568986;89;21102;-91
2022/07/12 07:34:09;;;;;;;1.90;1.70;;;;;;;29.57;50.61;101274.14;1600532;87;21638;-91
2022/07/12 07:36:37;;;;;;;6.50;1.60;;;;;;;29.47;50.87;101272.75;1624954;87;21137;-91
2022/07/12 07:39:04;;;;;;;1.77;1.20;;;;;;;29.17;50.89;101266.81;1599193;87;21036;-91
2022/07/12 07:41:30;;;;;;;;;;;;;;;29.22;50.63;101272.61;1586034;88;21060;-91
2022/07/12 07:43:56;;;;;;;2.10;1.70;;;;;;;29.28;49.84;101273.91;1616870;87;20575;-91
2022/07/12 07:46:22;;;;;;;3.17;1.55;;;;;;;29.21;50.07;101279.39;1618188;86;21711;-91
2022/07/12 07:48:49;;;;;;;4.22;1.47;;;;;;;29.25;49.75;101270.17;1590832;89;21089;-92
2022/07/12 07:51:15;;;;;;;5.33;1.32;;;;;;;29.29;49.36;101269.78;1578087;88;21110;-91
2022/07/12 07:53:41;;;;;;;2.08;1.10;;;;;;;29.42;49.47;101276.28;1624382;87;21091;-91
2022/07/12 07:56:10;;;;;;;1.72;1.10;;;;;;;29.51;48.77;101268.84;1575173;88;21581;-91
2022/07/12 07:58:38;;;;;;;1.05;0.93;;;;;;;29.58;48.78;101275.83;1585379;88;22281;-91
2022/07/12 08:01:05;;;;;;;5.20;1.17;;;;;;;29.64;48.47;101273.94;1558749;89;21188;-91
2022/07/12 08:03:31;;;;;;;2.22;1.15;;;;;;;29.39;47.48;101269.85;1566934;89;21185;-90
2022/07/12 08:05:58;;;;;;;1.72;1.30;;;;;;;28.96;47.21;101269.48;1607523;88;21096;-91
2022/07/12 08:08:24;;;;;;;1.55;1.07;;;;;;;29.18;47.57;101265.00;1606828;87;21538;-91
2022/07/12 08:10:54;;;;;;;4.62;1.17;;;;;;;29.44;47.44;101253.02;1595446;87;21090;-91
2022/07/12 08:13:23;;;;;;;4.67;0.98;;;;;;;29.79;46.98;101266.45;1583709;88;21085;-90
2022/07/12 08:15:51;;;;;;;1.10;0.78;;;;;;;30.17;47.06;101277.29;1575106;88;21181;-90
2022/07/12 08:18:17;;;;;;;1.42;0.72;;;;;;;30.24;46.21;101261.58;1598867;88;21509;-91
2022/07/12 08:20:43;;;;;;;1.47;1.07;;;;;;;29.88;45.35;101266.98;1618233;87;21127;-91
2022/07/12 08:23:10;;;;;;;0.82;0.68;;;;;;;29.81;46.41;101275.16;1593734;88;21251;-89
2022/07/12 08:25:37;;;;;;;1.22;0.70;;;;;;;29.77;46.17;101274.58;1590353;88;21177;-91
2022/07/12 08:28:04;;;;;;;1.20;0.75;;;;;;;29.99;45.94;101277.56;1587301;88;21097;-91
2022/07/12 08:30:31;;;;;;;;;;;;;;;29.89;45.64;101276.67;1587789;89;21632;-90
2022/07/12 08:32:56;;;;;;;;;;;;;;;29.81;45.27;101291.16;1591842;89;20171;-89
2022/07/12 08:35:23;;;;;;;2.37;0.80;;;;;;;29.54;44.64;101277.91;1614782;87;20470;-90
2022/07/12 08:37:49;;;;;;;1.15;0.60;;;;;;;29.39;44.87;101273.85;1606013;86;21045;-91
2022/07/12 08:40:15;;;;;;;1.42;0.57;;;;;;;29.49;43.71;101272.13;1633754;86;112856;-90
2022/07/12 08:42:42;;;;;;;3.50;0.88;;;;;;;28.78;43.76;101271.45;1630428;86;21132;-91
2022/07/12 08:45:09;;;;;;;;;;;;;;;27.80;43.59;101277.97;1608469;87;21071;-90
2022/07/12 08:47:36;;;;;;;0.53;0.30;;;;;;;27.39;44.16;101275.83;1628920;86;20219;-90
2022/07/12 08:50:20;;;;;;;0.75;0.50;;;;;;;27.04;43.75;101279.80;1615241;86;21145;-90
2022/07/12 08:52:56;;;;;;;1.27;0.50;;;;;;;26.73;43.81;101275.91;1632559;86;21168;-90
2022/07/12 08:55:33;;;;;;;0.95;0.40;;;;;;;26.22;43.55;101272.06;1629927;85;21151;-90
2022/07/12 08:58:05;;;;;;;1.57;0.57;;;;;;;26.12;43.52;101281.63;1595450;87;21104;-90
2022/07/12 09:00:32;;;;;;;1.17;0.50;;;;;;;25.78;43.07;101274.36;1617546;88;21165;-90
2022/07/12 09:03:01;;;;;;;0.70;0.35;;;;;;;25.42;43.28;101277.70;1583510;88;21210;-90
2022/07/12 09:05:33;;;;;;;0.55;0.40;;;;;;;25.25;43.40;101275.72;1563365;90;21115;-90
2022/07/12 09:08:09;;;;;;;2.33;0.60;;;;;;;25.25;43.52;101273.55;1597019;87;21071;-91
2022/07/12 09:10:52;;;;;;;1.62;0.40;;;;;;;25.20;43.32;101271.67;1594957;88;21328;-90
2022/07/12 09:13:19;;;;;;;0.20;0.20;;;;;;;25.00;43.11;101270.34;1620346;87;21125;-90
2022/07/12 09:15:50;;;;;;;2.35;0.40;;;;;;;24.58;43.02;101266.05;1613281;86;21209;-90
2022/07/12 09:18:17;;;;;;;2.40;0.60;;;;;;;24.45;43.16;101255.88;1610799;86;21068;-90
2022/07/12 09:20:51;;;;;;;1.35;0.62;;;;;;;24.08;43.20;101262.98;1622952;86;21144;-90
2022/07/12 09:23:21;;;;;;;1.02;0.40;;;;;;;24.08;43.20;101262.98;1591405;88;21082;-91
2022/07/12 09:25:48;;;;;;;0.80;0.40;;;;;;;24.09;43.15;101267.80;1579184;87;21173;-90
2022/07/12 09:28:15;;;;;;;0.42;0.35;;;;;;;24.10;43.24;101270.83;1621255;86;21204;-89
2022/07/12 09:30:50;;;;;;;;;;;;;;;24.09;43.22;101279.69;1623331;86;21116;-90
2022/07/12 09:36:06;;;;;;;0.98;0.47;;;;;;;24.03;43.28;101269.03;1613751;86;21122;-92
2022/07/12 09:38:37;;;;;;;2.25;0.50;;;;;;;23.98;43.20;101272.42;1586929;88;21082;-91
2022/07/12 09:41:06;;;;;;;0.70;0.35;;;;;;;24.03;43.32;101266.86;1606779;87;21093;-90
2022/07/12 09:43:33;;;;;;;0.60;0.37;;;;;;;24.16;43.25;101274.88;1588559;89;21088;-90
2022/07/12 09:46:00;;;;;;;;;;;;;;;24.13;43.12;101268.46;1621476;86;21046;-90
2022/07/12 09:48:27;;;;;;;;;;;;;;;23.99;43.11;101276.77;1600274;87;20222;-90
2022/07/12 09:50:57;;;;;;;1.17;0.30;;;;;;;23.77;43.11;101275.09;1623286;87;20242;-90
2022/07/12 09:53:35;;;;;;;0.60;0.30;;;;;;;23.60;43.25;101273.92;1590763;89;21122;-90
2022/07/12 09:56:07;;;;;;;3.20;0.50;;;;;;;23.54;43.22;101276.93;1592275;89;21169;-90
2022/07/12 09:58:53;;;;;;;0.37;0.30;;;;;;;23.54;43.37;101271.65;1618762;86;21643;-90
2022/07/12 10:01:30;;;;;;;0.78;0.78;;;;;;;23.71;43.53;101260.93;1575143;90;21204;-89
2022/07/12 10:04:01;;;;;;;0.50;0.40;;;;;;;23.92;43.45;101262.23;1587830;88;21124;-89
2022/07/12 10:06:30;;;;;;;0.62;0.30;;;;;;;24.12;43.41;101265.44;1579187;88;21094;-90
2022/07/12 10:08:57;;;;;;;3.92;0.37;;;;;;;24.06;43.02;101271.95;1591464;88;21152;-89
2022/07/12 10:11:24;;;;;;;0.75;0.25;;;;;;;23.94;43.06;101262.14;1589343;88;26798;-89
2022/07/12 10:13:52;;;;;;;3.60;0.30;;;;;;;23.84;42.93;101269.81;1616598;86;21700;-92
2022/07/12 10:16:29;;;;;;;0.45;0.30;;;;;;;23.78;43.07;101263.58;1582793;88;21085;-90
2022/07/12 10:19:35;;;;;;;0.62;0.30;;;;;;;23.73;42.71;101256.41;1581537;88;21120;-91
2022/07/12 10:22:05;;;;;;;2.40;0.30;;;;;;;23.69;43.07;101261.48;1614711;86;21136;-91
2022/07/12 10:24:45;;;;;;;0.85;0.40;;;;;;;23.70;43.02;101263.19;1589960;88;21117;-90
2022/07/12 10:27:20;;;;;;;0.70;0.20;;;;;;;23.65;42.95;101268.75;1587135;88;21114;-90
2022/07/12 10:29:53;;;;;;;1.15;0.25;;;;;;;23.59;43.02;101256.38;1529118;91;21183;-90
2022/07/12 10:32:35;;;;;;;0.40;0.20;;;;;;;23.59;43.13;101241.39;1532517;91;21148;-91
2022/07/12 10:35:11;;;;;;;0.30;0.30;;;;;;;23.70;43.17;101237.63;1532434;91;21154;-91
2022/07/12 10:37:40;;;;;;;3.33;0.30;;;;;;;23.75;42.81;101232.92;1527529;92;21150;-91
2022/07/12 10:40:21;;;;;;;0.55;0.30;;;;;;;23.70;42.63;101253.95;1517322;92;21224;-90
2022/07/12 10:44:17;;;;;;;0.55;0.30;;;;;;;23.65;42.73;101242.34;1516249;91;21196;-91
2022/07/12 10:48:24;;;;;;;0.57;0.37;;;;;;;23.74;42.65;101246.22;1541826;91;21650;-85
2022/07/12 10:50:55;;;;;;;2.05;0.25;;;;;;;23.79;42.78;101245.47;1564745;88;21140;-85
2022/07/12 10:53:38;;;;;;;0.20;0.20;;;;;;;23.93;42.79;101236.66;1514764;92;21185;-85
2022/07/12 10:56:18;;;;;;;3.85;0.30;;;;;;;24.05;42.75;101242.52;1520819;92;21202;-85
2022/07/12 10:58:58;;;;;;;0.70;0.40;;;;;;;24.24;42.81;101243.06;1553427;90;21195;-85
2022/07/12 11:01:30;;;;;;;0.35;0.30;;;;;;;24.35;42.58;101238.45;1576663;88;21100;-85
2022/07/12 11:04:10;;;;;;;3.65;0.42;;;;;;;24.41;42.62;101242.03;1577245;87;21251;-86
2022/07/12 11:06:42;;;;;;;0.57;0.40;;;;;;;24.41;42.68;101242.88;1617367;85;21158;-86
2022/07/12 11:09:11;;;;;;;1.52;0.33;;;;;;;24.51;42.52;101242.26;1650281;84;21148;-85
2022/07/12 11:11:51;;;;;;;0.90;0.20;;;;;;;24.52;42.35;101236.02;1657002;85;20978;-85
2022/07/12 11:14:23;;;;;;;0.35;0.30;;;;;;;24.49;41.77;101254.25;1634174;84;21015;-85
2022/07/12 11:16:56;;;;;;;1.80;0.40;;;;;;;24.36;41.89;101256.02;1642015;85;21028;-85
2022/07/12 11:19:25;;;;;;;0.72;0.37;;;;;;;24.18;41.98;101246.09;1636435;86;21022;-85
2022/07/12 11:21:58;;;;;;;0.30;0.30;;;;;;;24.23;42.08;101232.59;1657390;84;22047;-85
2022/07/12 11:24:32;;;;;;;1.00;0.30;;;;;;;24.43;42.22;101242.28;1653929;84;21522;-86
2022/07/12 11:26:59;;;;;;;5.42;0.30;;;;;;;24.67;42.07;101233.24;1643849;84;21167;-84
2022/07/12 11:29:26;;;;;;;2.17;0.30;;;;;;;24.71;41.57;101220.66;1655653;84;21668;-83
2022/07/12 11:32:06;;;;;;;2.35;0.17;;;;;;;24.62;41.44;101228.72;1663872;84;21193;-82
2022/07/12 11:34:39;;;;;;;0.37;0.30;;;;;;;24.56;41.56;101232.23;1673604;83;21199;-83
2022/07/12 11:37:05;;;;;;;17.35;0.95;;;;;;;24.43;41.35;101234.00;1662669;83;21056;-84
2022/07/12 11:39:39;;;;;;;1.17;0.30;;;;;;;24.37;41.64;101233.92;1650647;84;21144;-84
2022/07/12 11:42:08;;;;;;;0.30;0.25;;;;;;;24.37;41.64;101233.92;1655790;84;21367;-85